Time;durP1;ratioP1;P1;durP2;ratioP2;P2;SDS_P1;SDS_P2;PMS_P1;PMS_P2;Temp;Humidity;BMP_temperature;BMP_pressure;BME280_temperature;BME280_humidity;BME280_pressure;Samples;Min_cycle;Max_cycle;Signal;HPM_P1;HPM_P2
2021/07/12 00:00:30;;;;;;;8.43;6.13;;;14.40;99.90;;;;;;5046995;28;20029;-78
2021/07/12 00:02:56;;;;;;;7.60;6.05;;;14.30;99.90;;;;;;5055731;28;20031;-78
2021/07/12 00:05:24;;;;;;;8.05;5.82;;;14.20;99.90;;;;;;5055028;28;20040;-78
2021/07/12 00:07:52;;;;;;;8.68;6.88;;;14.10;99.90;;;;;;5033872;28;20044;-78
2021/07/12 00:10:21;;;;;;;7.32;6.63;;;14.20;99.90;;;;;;5050007;28;20222;-78
2021/07/12 00:12:49;;;;;;;8.45;6.55;;;14.30;99.90;;;;;;5055440;28;20029;-78
2021/07/12 00:15:17;;;;;;;9.02;7.25;;;14.30;99.90;;;;;;5037676;28;20029;-78
2021/07/12 00:17:44;;;;;;;7.82;6.35;;;14.40;99.90;;;;;;5048129;28;20040;-78
2021/07/12 00:20:12;;;;;;;10.68;6.43;;;14.40;99.90;;;;;;5052960;28;20033;-78
2021/07/12 00:22:39;;;;;;;6.88;5.82;;;14.20;99.90;;;;;;5047468;28;20036;-78
2021/07/12 00:25:07;;;;;;;8.10;6.18;;;14.10;99.90;;;;;;5039827;28;20037;-78
2021/07/12 00:27:34;;;;;;;6.93;6.22;;;14.00;99.90;;;;;;5053037;28;20037;-78
2021/07/12 00:30:00;;;;;;;10.15;6.28;;;14.00;99.90;;;;;;5055023;28;20459;-77
2021/07/12 00:32:26;;;;;;;14.10;6.55;;;14.00;99.90;;;;;;5054792;28;20036;-78
2021/07/12 00:34:53;;;;;;;9.50;7.00;;;14.10;99.90;;;;;;5055464;28;20029;-78
2021/07/12 00:37:20;;;;;;;9.07;6.05;;;14.20;99.90;;;;;;5055602;28;20550;-78
2021/07/12 00:39:46;;;;;;;7.70;5.68;;;14.10;99.90;;;;;;5038866;28;20045;-78
2021/07/12 00:42:13;;;;;;;12.10;6.25;;;13.90;99.90;;;;;;5054751;28;20045;-77
2021/07/12 00:44:42;;;;;;;8.63;5.93;;;13.70;99.90;;;;;;5078580;28;20029;-78
2021/07/12 00:47:08;;;;;;;15.30;7.07;;;13.60;99.90;;;;;;5056398;28;20031;-78
2021/07/12 00:49:36;;;;;;;10.90;6.55;;;13.60;99.90;;;;;;5067056;28;20032;-78
2021/07/12 00:52:04;;;;;;;9.00;5.75;;;13.70;99.90;;;;;;5060068;28;20048;-77
2021/07/12 00:54:31;;;;;;;9.98;6.28;;;13.70;99.90;;;;;;5060094;28;20033;-78
2021/07/12 00:57:00;;;;;;;9.95;5.88;;;13.80;99.90;;;;;;5034924;28;20053;-78
2021/07/12 00:59:31;;;;;;;8.88;6.93;;;13.80;99.90;;;;;;5031214;28;20042;-78
2021/07/12 01:01:57;;;;;;;7.60;6.05;;;13.80;99.90;;;;;;5037358;28;20389;-78
2021/07/12 01:04:24;;;;;;;9.07;6.97;;;13.80;99.90;;;;;;5035053;28;20415;-78
2021/07/12 01:06:52;;;;;;;7.00;6.22;;;13.70;99.90;;;;;;5019484;28;20056;-78
2021/07/12 01:09:18;;;;;;;8.00;6.00;;;13.70;99.90;;;;;;5041315;28;20411;-78
2021/07/12 01:11:57;;;;;;;9.73;6.25;;;13.70;99.90;;;;;;5033108;28;20038;-79
2021/07/12 01:15:02;;;;;;;10.98;6.40;;;13.70;99.90;;;;;;5038927;28;20048;-78
2021/07/12 01:17:48;;;;;;;8.15;6.30;;;13.70;99.90;;;;;;5030050;28;20037;-78
2021/07/12 01:20:41;;;;;;;6.60;5.90;;;13.70;99.90;;;;;;5053273;28;20044;-78
2021/07/12 01:23:38;;;;;;;6.97;6.13;;;13.70;99.90;;;;;;5052889;28;20048;-78
2021/07/12 01:26:30;;;;;;;6.55;5.38;;;13.40;99.90;;;;;;5042792;28;20041;-77
2021/07/12 01:29:23;;;;;;;8.70;6.35;;;13.30;99.90;;;;;;5051756;28;20517;-78
2021/07/12 01:31:53;;;;;;;9.85;6.90;;;13.20;99.90;;;;;;5035096;28;20390;-78
2021/07/12 01:34:41;;;;;;;12.02;6.75;;;13.20;99.90;;;;;;5033590;28;20060;-78
2021/07/12 01:37:45;;;;;;;8.27;6.50;;;13.30;99.90;;;;;;5031389;28;20033;-77
2021/07/12 01:40:18;;;;;;;9.43;6.13;;;13.30;99.90;;;;;;5040803;28;20358;-77
2021/07/12 01:43:00;;;;;;;8.45;6.82;;;13.30;99.90;;;;;;5032332;28;20033;-77
2021/07/12 01:45:32;;;;;;;10.38;7.05;;;13.30;99.90;;;;;;5034457;28;20057;-77
2021/07/12 01:48:07;;;;;;;7.82;6.28;;;13.20;99.90;;;;;;5041004;28;20041;-77
2021/07/12 01:50:49;;;;;;;7.95;6.45;;;13.20;99.90;;;;;;5038134;28;20064;-78
2021/07/12 01:53:36;;;;;;;12.73;6.85;;;13.10;99.90;;;;;;5054307;28;20489;-77
2021/07/12 01:56:36;;;;;;;12.85;8.00;;;13.10;99.90;;;;;;5040160;28;20045;-77
2021/07/12 01:59:13;;;;;;;10.30;7.55;;;13.20;99.90;;;;;;5035400;28;20041;-77
2021/07/12 02:01:44;;;;;;;8.63;7.60;;;13.30;99.90;;;;;;5035226;28;20067;-77
2021/07/12 02:04:16;;;;;;;11.43;6.68;;;13.20;99.90;;;;;;5049342;28;20467;-77
2021/07/12 02:06:44;;;;;;;8.73;5.80;;;13.20;99.90;;;;;;5032358;28;20053;-78
2021/07/12 02:09:15;;;;;;;9.15;6.35;;;13.20;99.90;;;;;;5032638;28;20057;-78
2021/07/12 02:11:46;;;;;;;9.48;6.43;;;13.10;99.90;;;;;;5033529;28;20042;-76
2021/07/12 02:14:19;;;;;;;9.87;6.40;;;13.00;99.90;;;;;;5031869;28;20495;-76
2021/07/12 02:16:52;;;;;;;9.40;6.93;;;13.00;99.90;;;;;;5016096;28;20292;-77
2021/07/12 02:19:20;;;;;;;23.55;7.10;;;13.10;99.90;;;;;;5039080;28;20040;-76
2021/07/12 02:21:59;;;;;;;7.20;6.28;;;13.10;99.90;;;;;;5033814;28;20378;-76
2021/07/12 02:24:46;;;;;;;13.25;6.75;;;13.00;99.90;;;;;;5051870;28;20080;-78
2021/07/12 02:27:16;;;;;;;12.02;8.27;;;13.10;99.90;;;;;;5049767;28;20474;-77
2021/07/12 02:29:43;;;;;;;8.05;7.25;;;13.10;99.90;;;;;;5042071;28;20053;-78
2021/07/12 02:32:10;;;;;;;8.77;7.50;;;13.10;99.90;;;;;;5031615;28;20049;-77
2021/07/12 02:34:38;;;;;;;8.30;6.70;;;13.10;99.90;;;;;;5015891;28;20037;-78
2021/07/12 02:37:06;;;;;;;9.60;6.78;;;13.00;99.90;;;;;;5031432;28;20037;-77
2021/07/12 02:39:36;;;;;;;7.97;7.00;;;13.00;99.90;;;;;;5033022;28;20056;-77
2021/07/12 02:42:08;;;;;;;8.48;6.68;;;12.90;99.90;;;;;;5032678;28;20037;-76
2021/07/12 02:44:36;;;;;;;10.43;7.90;;;13.10;99.90;;;;;;5033251;28;20049;-77
2021/07/12 02:47:05;;;;;;;9.15;6.60;;;13.00;99.90;;;;;;5027934;28;20036;-76
2021/07/12 02:49:35;;;;;;;8.07;6.95;;;13.10;99.90;;;;;;5033684;28;20120;-76
2021/07/12 02:52:13;;;;;;;10.13;6.43;;;13.00;99.90;;;;;;5052108;28;20049;-75
2021/07/12 02:54:45;;;;;;;11.32;6.47;;;13.00;99.90;;;;;;5037291;28;20045;-76
2021/07/12 02:57:12;;;;;;;7.10;6.07;;;12.80;99.90;;;;;;5033814;28;20367;-76
2021/07/12 02:59:38;;;;;;;8.15;6.90;;;12.70;99.90;;;;;;5033860;28;20067;-76
2021/07/12 03:02:06;;;;;;;8.82;6.15;;;12.70;99.90;;;;;;5038973;28;20046;-76
2021/07/12 03:04:32;;;;;;;10.05;7.82;;;12.70;99.90;;;;;;5032099;28;20037;-78
2021/07/12 03:07:07;;;;;;;13.88;7.70;;;12.80;99.90;;;;;;5050426;28;20036;-77
2021/07/12 03:09:38;;;;;;;11.65;8.00;;;12.80;99.90;;;;;;5030264;28;20075;-77
2021/07/12 03:12:13;;;;;;;10.02;8.07;;;12.80;99.90;;;;;;5027380;28;20041;-77
2021/07/12 03:14:58;;;;;;;9.48;6.93;;;12.70;99.90;;;;;;5015174;28;20045;-78
2021/07/12 03:17:28;;;;;;;9.15;8.05;;;12.60;99.90;;;;;;5031059;28;20040;-78
2021/07/12 03:19:57;;;;;;;11.75;7.75;;;12.60;99.90;;;;;;5023923;28;20068;-78
2021/07/12 03:22:26;;;;;;;8.32;7.22;;;12.60;99.90;;;;;;5040680;28;20243;-78
2021/07/12 03:24:56;;;;;;;10.75;7.95;;;12.50;99.90;;;;;;5029744;28;20041;-78
2021/07/12 03:27:23;;;;;;;8.88;6.90;;;12.50;99.90;;;;;;5032145;28;20026;-77
2021/07/12 03:29:53;;;;;;;9.93;8.40;;;12.50;99.90;;;;;;5022963;28;20045;-78
2021/07/12 03:32:30;;;;;;;9.88;7.40;;;12.60;99.90;;;;;;5043061;28;20041;-77
2021/07/12 03:35:01;;;;;;;8.32;7.18;;;12.70;99.90;;;;;;5055691;28;20053;-77
2021/07/12 03:37:28;;;;;;;11.15;7.82;;;12.70;99.90;;;;;;5047126;28;20029;-77
2021/07/12 03:39:56;;;;;;;11.38;7.53;;;12.70;99.90;;;;;;5037212;28;20044;-78
2021/07/12 03:42:24;;;;;;;10.88;8.70;;;12.80;99.90;;;;;;5042109;28;20048;-78
2021/07/12 03:44:53;;;;;;;8.18;7.07;;;12.90;99.90;;;;;;5031233;28;20049;-78
2021/07/12 03:47:28;;;;;;;9.95;7.22;;;12.90;99.90;;;;;;5034870;28;20045;-78
2021/07/12 03:50:06;;;;;;;7.90;7.07;;;12.90;99.90;;;;;;5036284;28;20049;-78
2021/07/12 03:52:43;;;;;;;8.60;7.25;;;12.90;99.90;;;;;;5048436;28;20394;-75
2021/07/12 03:55:12;;;;;;;8.07;6.60;;;13.00;99.90;;;;;;5042923;28;20029;-77
2021/07/12 03:57:38;;;;;;;10.48;6.57;;;12.80;99.90;;;;;;5055803;28;20032;-76
2021/07/12 04:00:07;;;;;;;8.65;6.60;;;12.80;99.90;;;;;;5049338;28;20045;-76
2021/07/12 04:02:39;;;;;;;9.95;6.53;;;12.70;99.90;;;;;;5067026;28;20041;-76
2021/07/12 04:05:07;;;;;;;8.48;7.20;;;12.70;99.90;;;;;;5079236;28;20046;-74
2021/07/12 04:07:34;;;;;;;11.00;8.35;;;12.70;99.90;;;;;;5065617;28;20041;-76
2021/07/12 04:10:01;;;;;;;11.93;9.38;;;12.90;99.90;;;;;;5056752;28;20057;-76
2021/07/12 04:12:27;;;;;;;9.98;8.88;;;13.00;99.90;;;;;;5056389;28;20028;-78
2021/07/12 04:14:54;;;;;;;14.05;9.95;;;13.20;99.90;;;;;;5056959;28;20052;-77
2021/07/12 04:17:20;;;;;;;12.35;10.13;;;13.30;99.90;;;;;;5056807;28;20048;-77
2021/07/12 04:19:47;;;;;;;11.90;9.82;;;13.40;99.90;;;;;;5056858;28;20033;-77
2021/07/12 04:22:13;;;;;;;10.38;8.70;;;13.50;99.90;;;;;;5041345;28;20045;-76
2021/07/12 04:24:40;;;;;;;11.27;9.15;;;13.60;99.90;;;;;;5018213;28;20033;-77
2021/07/12 04:27:06;;;;;;;11.07;9.25;;;13.70;99.90;;;;;;5021196;28;20041;-76
2021/07/12 04:29:33;;;;;;;10.93;9.70;;;13.80;99.90;;;;;;5035804;28;20045;-78
2021/07/12 04:32:01;;;;;;;16.10;12.50;;;14.00;99.90;;;;;;5049579;28;20379;-78
2021/07/12 04:34:29;;;;;;;18.02;12.60;;;14.10;99.90;;;;;;5034691;28;20056;-78
2021/07/12 04:36:55;;;;;;;31.75;14.40;;;14.30;99.90;;;;;;5043417;28;20028;-78
2021/07/12 04:39:22;;;;;;;18.13;12.98;;;14.40;99.90;;;;;;5046648;28;20032;-76
2021/07/12 04:41:48;;;;;;;19.10;12.63;;;14.40;99.90;;;;;;5054935;28;20029;-76
2021/07/12 04:44:14;;;;;;;17.42;11.88;;;14.40;99.90;;;;;;5035676;28;20056;-76
2021/07/12 04:46:40;;;;;;;28.10;13.35;;;14.40;99.90;;;;;;5055191;28;20032;-75
2021/07/12 04:49:07;;;;;;;40.72;12.85;;;14.50;99.90;;;;;;5038702;28;20037;-76
2021/07/12 04:51:33;;;;;;;53.63;12.25;;;14.60;99.90;;;;;;5035322;28;20056;-77
2021/07/12 04:53:59;;;;;;;44.78;12.38;;;14.60;99.90;;;;;;5051771;28;20381;-77
2021/07/12 04:56:25;;;;;;;26.45;10.30;;;14.80;99.90;;;;;;5047986;28;20627;-77
2021/07/12 04:58:52;;;;;;;17.92;9.05;;;15.20;99.90;;;;;;5046325;28;20406;-79
2021/07/12 05:01:19;;;;;;;13.18;9.70;;;15.40;99.90;;;;;;5054138;28;20029;-78
2021/07/12 05:03:46;;;;;;;12.02;7.05;;;15.80;99.90;;;;;;5055133;28;20068;-79
2021/07/12 05:06:12;;;;;;;6.82;6.13;;;16.20;99.90;;;;;;5055399;28;20032;-79
2021/07/12 05:08:39;;;;;;;6.15;5.05;;;16.70;99.90;;;;;;5055062;28;20043;-79
2021/07/12 05:11:05;;;;;;;5.95;5.07;;;17.30;99.90;;;;;;5050907;28;20056;-79
2021/07/12 05:13:34;;;;;;;4.85;4.45;;;17.70;99.90;;;;;;5054714;28;20040;-77
2021/07/12 05:16:02;;;;;;;5.35;4.85;;;18.60;99.90;;;;;;5066957;28;20056;-77
2021/07/12 05:18:29;;;;;;;6.13;4.80;;;19.10;99.90;;;;;;5071148;28;20031;-78
2021/07/12 05:20:56;;;;;;;5.05;4.43;;;19.80;99.90;;;;;;5059205;28;20021;-77
2021/07/12 05:23:22;;;;;;;4.95;4.45;;;20.10;99.90;;;;;;5057051;28;20045;-77
2021/07/12 05:25:49;;;;;;;4.60;4.20;;;20.40;99.90;;;;;;5075326;28;20033;-79
2021/07/12 05:28:15;;;;;;;5.07;4.57;;;20.70;99.90;;;;;;5029784;28;20041;-78
2021/07/12 05:30:41;;;;;;;5.15;4.65;;;20.70;99.90;;;;;;5038452;28;20036;-79
2021/07/12 05:33:07;;;;;;;5.35;4.85;;;20.60;99.90;;;;;;5033339;28;20388;-77
2021/07/12 05:35:34;;;;;;;4.93;4.50;;;21.30;99.90;;;;;;5046069;28;20028;-78
2021/07/12 05:38:00;;;;;;;5.53;5.03;;;22.30;97.10;;;;;;5049220;28;20033;-77
2021/07/12 05:40:26;;;;;;;5.05;4.55;;;21.10;98.80;;;;;;5039869;28;20044;-77
2021/07/12 05:42:52;;;;;;;4.95;4.50;;;20.40;99.80;;;;;;5059726;28;20048;-77
2021/07/12 05:45:18;;;;;;;5.15;4.68;;;19.90;99.90;;;;;;5061484;28;20029;-76
2021/07/12 05:47:45;;;;;;;6.85;5.18;;;19.80;99.90;;;;;;5058753;28;20041;-77
2021/07/12 05:50:14;;;;;;;5.20;4.70;;;19.80;99.90;;;;;;5034279;28;20053;-76
2021/07/12 05:52:40;;;;;;;5.13;4.63;;;19.50;99.90;;;;;;5054496;28;20040;-78
2021/07/12 05:55:07;;;;;;;6.03;4.25;;;19.90;99.90;;;;;;5052627;28;20044;-78
2021/07/12 05:57:34;;;;;;;6.93;4.35;;;20.30;99.90;;;;;;5045921;28;20033;-77
2021/07/12 06:00:00;;;;;;;4.95;3.83;;;20.10;99.90;;;;;;5052957;28;20049;-78
2021/07/12 06:02:26;;;;;;;3.80;3.50;;;20.80;99.90;;;;;;5032475;28;20041;-77
2021/07/12 06:04:52;;;;;;;4.32;3.90;;;21.00;99.70;;;;;;5044718;28;20056;-77
2021/07/12 06:07:19;;;;;;;6.28;3.78;;;21.20;99.50;;;;;;5049170;28;20026;-77
2021/07/12 06:09:45;;;;;;;4.38;3.10;;;22.60;96.80;;;;;;5033837;28;20033;-78
2021/07/12 06:12:12;;;;;;;5.05;2.70;;;23.20;95.90;;;;;;5040306;28;20037;-78
2021/07/12 06:14:38;;;;;;;3.75;2.65;;;23.60;93.70;;;;;;5048023;28;20033;-79
2021/07/12 06:17:04;;;;;;;3.45;2.25;;;23.90;92.60;;;;;;5044825;28;20033;-76
2021/07/12 06:19:31;;;;;;;3.47;3.17;;;22.50;93.90;;;;;;5047135;28;20049;-78
2021/07/12 06:21:57;;;;;;;3.40;3.10;;;22.10;96.20;;;;;;5041250;28;20485;-78
2021/07/12 06:24:23;;;;;;;3.13;2.83;;;22.00;95.00;;;;;;5042980;28;20040;-77
2021/07/12 06:26:49;;;;;;;4.53;3.35;;;21.10;96.60;;;;;;5044404;28;20053;-79
2021/07/12 06:29:16;;;;;;;3.28;2.97;;;20.90;97.10;;;;;;5043261;28;20033;-77
2021/07/12 06:31:43;;;;;;;4.25;3.17;;;20.40;98.30;;;;;;5042248;28;20029;-79
2021/07/12 06:34:09;;;;;;;4.78;3.28;;;19.90;99.90;;;;;;5043585;28;20649;-76
2021/07/12 06:36:35;;;;;;;5.50;4.10;;;19.60;99.90;;;;;;5045348;28;20032;-78
2021/07/12 06:39:01;;;;;;;5.63;4.20;;;19.40;99.90;;;;;;5038928;28;20037;-78
2021/07/12 06:41:27;;;;;;;6.60;3.90;;;19.50;99.90;;;;;;5046650;28;20033;-77
2021/07/12 06:43:55;;;;;;;4.53;3.78;;;19.60;99.90;;;;;;5052566;28;20056;-78
2021/07/12 06:46:27;;;;;;;5.70;4.05;;;19.60;99.90;;;;;;5051884;28;20037;-77
2021/07/12 06:48:55;;;;;;;3.75;3.13;;;19.90;99.90;;;;;;5017133;28;20037;-78
2021/07/12 06:51:21;;;;;;;5.20;3.05;;;21.10;99.20;;;;;;5041520;28;20060;-78
2021/07/12 06:53:47;;;;;;;6.28;3.42;;;21.60;97.10;;;;;;5036642;28;20030;-78
2021/07/12 06:56:14;;;;;;;4.20;3.30;;;22.10;95.60;;;;;;5052103;28;20392;-77
2021/07/12 06:58:41;;;;;;;4.13;3.42;;;23.00;94.20;;;;;;5057212;28;20029;-79
2021/07/12 07:01:08;;;;;;;4.25;3.50;;;23.30;93.00;;;;;;5063342;28;20496;-79
2021/07/12 07:03:34;;;;;;;5.90;2.97;;;22.70;92.50;;;;;;5038205;28;20462;-78
2021/07/12 07:06:00;;;;;;;3.97;3.38;;;22.50;92.70;;;;;;5049038;28;20040;-79
2021/07/12 07:08:33;;;;;;;4.03;3.17;;;22.40;93.90;;;;;;5033749;28;20378;-77
2021/07/12 07:10:59;;;;;;;5.68;2.83;;;22.50;93.20;;;;;;5032902;28;20049;-77
2021/07/12 07:13:26;;;;;;;5.18;3.70;;;22.30;93.00;;;;;;5049910;28;20044;-77
2021/07/12 07:15:58;;;;;;;5.95;3.58;;;22.30;92.50;;;;;;5051857;28;20025;-75
2021/07/12 07:18:24;;;;;;;6.13;3.90;;;22.20;93.50;;;;;;5065147;28;20033;-76
2021/07/12 07:20:51;;;;;;;6.32;3.85;;;22.00;94.10;;;;;;5047155;28;20049;-75
2021/07/12 07:23:17;;;;;;;4.22;3.83;;;22.00;94.10;;;;;;5056815;28;20502;-76
2021/07/12 07:25:43;;;;;;;3.88;3.13;;;22.20;94.20;;;;;;5052974;28;20032;-75
2021/07/12 07:28:11;;;;;;;7.00;3.50;;;21.80;94.40;;;;;;5053651;28;20045;-76
2021/07/12 07:30:39;;;;;;;4.90;3.42;;;21.80;93.70;;;;;;5032260;28;20045;-75
2021/07/12 07:33:05;;;;;;;3.47;2.80;;;22.20;93.70;;;;;;5043295;28;20026;-77
2021/07/12 07:35:32;;;;;;;4.15;3.53;;;22.50;92.90;;;;;;5027346;28;20044;-78
2021/07/12 07:37:58;;;;;;;4.53;3.30;;;22.30;92.20;;;;;;5053875;28;20033;-74
2021/07/12 07:40:24;;;;;;;5.70;3.42;;;22.60;93.20;;;;;;5048987;28;20486;-76
2021/07/12 07:42:50;;;;;;;5.28;2.92;;;22.90;91.10;;;;;;5033442;28;20037;-75
2021/07/12 07:45:17;;;;;;;4.50;2.95;;;23.30;91.10;;;;;;5041094;28;20032;-76
2021/07/12 07:47:45;;;;;;;5.22;2.67;;;23.20;91.10;;;;;;5049454;28;20021;-76
2021/07/12 07:50:13;;;;;;;4.05;2.65;;;22.70;91.50;;;;;;5022031;28;20489;-76
2021/07/12 07:52:39;;;;;;;2.50;2.20;;;23.40;91.30;;;;;;5029929;28;20049;-76
2021/07/12 07:55:12;;;;;;;5.00;2.10;;;23.50;91.60;;;;;;5037045;28;20044;-75
2021/07/12 07:57:41;;;;;;;2.28;2.08;;;23.20;92.30;;;;;;5030179;28;20041;-76
2021/07/12 08:00:14;;;;;;;1.75;1.45;;;24.10;90.60;;;;;;5046034;28;20036;-78
2021/07/12 08:02:42;;;;;;;2.90;2.03;;;24.70;88.10;;;;;;5051110;28;20037;-76
2021/07/12 08:05:09;;;;;;;2.40;1.50;;;25.20;85.40;;;;;;5051573;28;20025;-76
2021/07/12 08:07:36;;;;;;;2.60;2.05;;;24.60;87.60;;;;;;5036654;28;20029;-76
2021/07/12 08:10:11;;;;;;;4.55;2.03;;;24.90;85.10;;;;;;5043722;28;20048;-77
2021/07/12 08:12:38;;;;;;;1.83;1.60;;;25.20;84.70;;;;;;5031964;28;20082;-77
2021/07/12 08:15:06;;;;;;;2.63;1.88;;;26.20;83.80;;;;;;5013712;28;20041;-76
2021/07/12 08:17:33;;;;;;;3.35;2.20;;;25.50;83.60;;;;;;5051055;28;20051;-76
2021/07/12 08:19:59;;;;;;;2.40;1.65;;;25.20;85.60;;;;;;5017681;28;20466;-76
2021/07/12 08:22:26;;;;;;;2.53;1.88;;;25.50;83.00;;;;;;5051825;28;20041;-75
2021/07/12 08:24:52;;;;;;;4.55;1.60;;;24.70;82.50;;;;;;5046270;28;20029;-77
2021/07/12 08:27:18;;;;;;;2.63;1.45;;;24.70;84.30;;;;;;5048670;28;20036;-75
2021/07/12 08:29:44;;;;;;;2.28;1.25;;;24.90;82.90;;;;;;5036011;28;20037;-79
2021/07/12 08:32:11;;;;;;;1.42;1.10;;;24.90;82.60;;;;;;5047501;28;20044;-75
2021/07/12 08:34:42;;;;;;;1.70;1.40;;;25.10;81.80;;;;;;5055491;28;20362;-75
2021/07/12 08:37:10;;;;;;;3.08;1.45;;;24.80;79.70;;;;;;5046475;28;20037;-76
2021/07/12 08:39:36;;;;;;;3.78;1.20;;;24.40;82.00;;;;;;5041690;28;20041;-74
2021/07/12 08:42:03;;;;;;;1.88;1.15;;;24.20;81.40;;;;;;5054906;28;20351;-76
2021/07/12 08:44:30;;;;;;;2.80;1.17;;;24.30;83.70;;;;;;5046681;28;20032;-77
2021/07/12 08:46:56;;;;;;;1.17;0.90;;;24.60;82.70;;;;;;5050556;28;20378;-76
2021/07/12 08:49:23;;;;;;;2.10;0.73;;;24.20;82.40;;;;;;5025010;28;20464;-76
2021/07/12 08:51:49;;;;;;;2.47;1.17;;;23.90;82.40;;;;;;5054812;28;20045;-74
2021/07/12 08:54:17;;;;;;;5.28;1.10;;;23.70;78.90;;;;;;5035801;28;20040;-75
2021/07/12 08:56:43;;;;;;;1.42;0.75;;;23.70;77.10;;;;;;5055484;28;20029;-74
2021/07/12 08:59:30;;;;;;;2.08;0.75;;;24.00;76.80;;;;;;5054780;28;20032;-76
2021/07/12 09:02:08;;;;;;;2.30;0.77;;;23.90;75.60;;;;;;5037167;28;20052;-76
2021/07/12 09:04:48;;;;;;;1.98;0.93;;;23.90;76.60;;;;;;5054262;28;20029;-74
2021/07/12 09:07:21;;;;;;;2.20;1.17;;;23.90;75.70;;;;;;5054156;28;20040;-75
2021/07/12 09:10:07;;;;;;;1.23;0.70;;;23.80;74.90;;;;;;5054472;28;20039;-75
2021/07/12 09:12:43;;;;;;;1.73;1.10;;;23.70;74.00;;;;;;5039205;28;20029;-74
2021/07/12 09:15:11;;;;;;;1.77;0.90;;;23.80;73.60;;;;;;5039979;28;20473;-76
2021/07/12 09:17:40;;;;;;;2.08;0.80;;;23.90;74.00;;;;;;5049704;28;20025;-75
2021/07/12 09:20:09;;;;;;;2.20;0.80;;;23.90;74.10;;;;;;5042240;28;20036;-76
2021/07/12 09:22:38;;;;;;;1.08;0.70;;;24.30;73.80;;;;;;5053775;28;20025;-76
2021/07/12 09:25:11;;;;;;;2.25;1.13;;;24.60;72.80;;;;;;5054230;28;20032;-77
2021/07/12 09:27:40;;;;;;;2.72;0.85;;;24.80;71.20;;;;;;5054204;28;20036;-74
2021/07/12 09:30:08;;;;;;;1.98;0.80;;;24.40;71.70;;;;;;5054032;28;20374;-75
2021/07/12 09:32:36;;;;;;;2.22;0.90;;;24.10;70.30;;;;;;5038696;28;20037;-75
2021/07/12 09:35:07;;;;;;;1.08;0.60;;;24.30;71.00;;;;;;5051249;28;20036;-76
2021/07/12 09:37:35;;;;;;;2.42;0.80;;;24.60;69.00;;;;;;5054054;28;20450;-75
2021/07/12 09:40:05;;;;;;;1.40;0.90;;;24.30;69.10;;;;;;5055385;28;20029;-75
2021/07/12 09:42:31;;;;;;;0.95;0.70;;;24.30;70.30;;;;;;5036331;28;20396;-75
2021/07/12 09:45:07;;;;;;;2.55;0.73;;;24.40;69.90;;;;;;5030568;28;20044;-76
2021/07/12 09:47:35;;;;;;;1.30;1.00;;;24.60;69.00;;;;;;5059603;28;20028;-75
2021/07/12 09:50:14;;;;;;;0.98;0.65;;;24.80;69.20;;;;;;5056354;28;20469;-73
2021/07/12 09:52:52;;;;;;;1.23;0.70;;;25.00;68.90;;;;;;5050276;28;20049;-76
2021/07/12 09:55:24;;;;;;;1.33;1.02;;;25.20;69.10;;;;;;5048193;28;20039;-77
2021/07/12 09:58:12;;;;;;;1.10;0.80;;;25.50;67.70;;;;;;5072247;28;20025;-76
2021/07/12 10:00:41;;;;;;;1.08;0.60;;;25.70;66.60;;;;;;5049381;28;20052;-73
2021/07/12 10:03:07;;;;;;;2.20;0.70;;;25.60;67.20;;;;;;5054660;28;20028;-73
2021/07/12 10:05:34;;;;;;;2.45;0.70;;;25.60;66.40;;;;;;5035591;28;20037;-75
2021/07/12 10:08:02;;;;;;;1.17;0.82;;;25.20;66.10;;;;;;5040749;28;20037;-73
2021/07/12 10:10:28;;;;;;;1.55;0.80;;;25.20;65.90;;;;;;5043925;28;20033;-73
2021/07/12 10:12:55;;;;;;;0.50;0.40;;;25.60;66.30;;;;;;5041361;28;20041;-75
2021/07/12 10:15:21;;;;;;;2.95;0.80;;;25.90;65.10;;;;;;5042214;28;20048;-73
2021/07/12 10:17:48;;;;;;;1.33;0.70;;;25.80;64.30;;;;;;5047088;28;20025;-74
2021/07/12 10:20:16;;;;;;;2.00;0.70;;;25.90;63.40;;;;;;5049476;28;20049;-74
2021/07/12 10:22:43;;;;;;;1.95;0.88;;;25.70;65.00;;;;;;5048221;28;20021;-73
2021/07/12 10:25:15;;;;;;;1.90;0.50;;;25.90;64.10;;;;;;5043773;28;20025;-73
2021/07/12 10:28:01;;;;;;;0.80;0.50;;;26.30;64.60;;;;;;5044110;28;20020;-73
2021/07/12 10:30:45;;;;;;;1.48;0.70;;;26.30;63.90;;;;;;5042208;28;20041;-76
2021/07/12 10:33:14;;;;;;;2.72;0.90;;;26.40;64.00;;;;;;5052814;28;20040;-77
2021/07/12 10:35:45;;;;;;;1.20;0.60;;;26.30;64.70;;;;;;5050857;28;20056;-76
2021/07/12 10:38:14;;;;;;;3.03;0.80;;;26.60;63.60;;;;;;5052436;28;20028;-76
2021/07/12 10:40:51;;;;;;;1.48;1.00;;;26.70;63.80;;;;;;5059045;28;20033;-77
2021/07/12 10:43:42;;;;;;;1.48;0.80;;;26.90;62.60;;;;;;5054327;28;20021;-77
2021/07/12 10:46:30;;;;;;;1.63;0.90;;;27.20;61.80;;;;;;5053022;28;20025;-75
2021/07/12 10:49:05;;;;;;;1.00;0.70;;;26.80;61.80;;;;;;5052218;28;20033;-79
2021/07/12 10:51:37;;;;;;;1.77;1.10;;;26.20;62.80;;;;;;5051631;28;20053;-77
2021/07/12 10:54:14;;;;;;;1.70;0.70;;;26.20;63.30;;;;;;5050435;28;20025;-77
2021/07/12 10:56:45;;;;;;;1.98;1.17;;;26.20;63.00;;;;;;5052617;28;20041;-77
2021/07/12 10:59:34;;;;;;;1.55;0.63;;;26.40;64.10;;;;;;5052308;28;20048;-75
2021/07/12 11:02:03;;;;;;;1.00;0.60;;;26.60;61.60;;;;;;5042969;28;20050;-77
2021/07/12 11:04:31;;;;;;;1.20;0.95;;;26.90;63.80;;;;;;5051702;28;20286;-77
2021/07/12 11:06:58;;;;;;;7.57;1.08;;;27.20;63.60;;;;;;5042414;28;20026;-77
2021/07/12 11:09:47;;;;;;;1.48;0.70;;;27.60;63.20;;;;;;5033016;28;20037;-77
2021/07/12 11:12:34;;;;;;;1.75;0.50;;;27.50;61.80;;;;;;5046414;28;20032;-78
2021/07/12 11:15:17;;;;;;;2.28;0.60;;;27.20;59.90;;;;;;5041775;28;20508;-78
2021/07/12 11:17:52;;;;;;;1.00;0.40;;;27.10;60.30;;;;;;5037749;28;20029;-77
2021/07/12 11:20:40;;;;;;;1.00;0.52;;;27.40;61.40;;;;;;5043337;28;20450;-78
2021/07/12 11:23:06;;;;;;;2.30;0.75;;;27.50;61.10;;;;;;5042483;28;20451;-77
2021/07/12 11:25:43;;;;;;;1.50;0.70;;;27.60;60.10;;;;;;5052022;28;20454;-78
2021/07/12 11:28:11;;;;;;;2.72;0.73;;;27.50;61.20;;;;;;5047951;28;20017;-78
2021/07/12 11:30:38;;;;;;;2.10;0.70;;;27.90;61.30;;;;;;5043516;28;20041;-77
2021/07/12 11:33:04;;;;;;;2.83;0.70;;;27.90;59.10;;;;;;5052167;28;20029;-77
2021/07/12 11:35:31;;;;;;;1.65;0.60;;;27.10;59.20;;;;;;5036057;28;20378;-77
2021/07/12 11:37:59;;;;;;;1.58;0.70;;;27.00;59.00;;;;;;5041295;28;20031;-76
2021/07/12 11:40:26;;;;;;;0.95;0.63;;;26.70;60.00;;;;;;5049662;28;20359;-77
2021/07/12 11:42:52;;;;;;;2.67;0.70;;;27.00;60.10;;;;;;5051864;28;20029;-78
2021/07/12 11:45:20;;;;;;;4.72;0.88;;;27.10;60.20;;;;;;5051782;28;20501;-78
2021/07/12 11:47:51;;;;;;;2.28;0.77;;;26.60;60.30;;;;;;5033506;28;20037;-76
2021/07/12 11:50:21;;;;;;;2.50;0.85;;;26.60;60.50;;;;;;5051330;28;20556;-76
2021/07/12 11:52:50;;;;;;;1.55;0.70;;;26.70;59.70;;;;;;5051988;28;20032;-77
2021/07/12 11:55:19;;;;;;;1.58;0.85;;;26.80;59.70;;;;;;5054748;28;20044;-76
2021/07/12 11:57:50;;;;;;;1.02;0.73;;;26.60;59.80;;;;;;5048550;28;20028;-76
2021/07/12 12:00:18;;;;;;;1.52;0.80;;;26.90;60.10;;;;;;5046335;28;20033;-77
2021/07/12 12:02:44;;;;;;;2.65;0.90;;;26.80;60.00;;;;;;5046936;28;20021;-75
2021/07/12 12:05:12;;;;;;;11.40;2.15;;;26.50;60.00;;;;;;5049417;28;20041;-76
2021/07/12 12:07:47;;;;;;;1.58;0.82;;;26.60;59.10;;;;;;5055330;28;20029;-76
2021/07/12 12:10:19;;;;;;;1.88;0.90;;;26.60;59.70;;;;;;5036424;28;20359;-76
2021/07/12 12:12:51;;;;;;;2.90;1.00;;;26.70;59.40;;;;;;5041713;28;20044;-77
2021/07/12 12:15:24;;;;;;;2.05;1.00;;;27.00;59.90;;;;;;5044867;28;20025;-76
2021/07/12 12:18:02;;;;;;;1.00;0.70;;;26.90;59.00;;;;;;5047833;28;20056;-77
2021/07/12 12:20:34;;;;;;;2.97;1.08;;;27.10;60.20;;;;;;5055175;28;20040;-77
2021/07/12 12:23:15;;;;;;;4.80;0.70;;;27.10;59.00;;;;;;5035898;28;20034;-78
2021/07/12 12:25:52;;;;;;;1.95;0.75;;;27.10;59.30;;;;;;5036285;28;20021;-77
2021/07/12 12:28:36;;;;;;;3.40;0.98;;;27.50;57.10;;;;;;5049454;28;20025;-76
2021/07/12 12:31:30;;;;;;;1.77;1.00;;;27.00;58.30;;;;;;5054396;28;20021;-77
2021/07/12 12:33:57;;;;;;;1.13;0.70;;;27.00;59.10;;;;;;5051166;28;20060;-78
2021/07/12 12:36:28;;;;;;;0.90;0.70;;;27.40;57.20;;;;;;5054999;28;20040;-77
2021/07/12 12:38:57;;;;;;;1.92;0.60;;;27.00;58.20;;;;;;5055166;28;20032;-77
2021/07/12 12:41:30;;;;;;;3.47;0.90;;;27.00;57.80;;;;;;5050837;28;20461;-76
2021/07/12 12:44:08;;;;;;;2.20;1.10;;;26.80;58.30;;;;;;5052521;28;20029;-77
2021/07/12 12:46:48;;;;;;;2.72;0.88;;;26.70;58.70;;;;;;5054581;28;20036;-78
2021/07/12 12:49:30;;;;;;;0.90;0.80;;;27.10;59.90;;;;;;5054765;28;20033;-78
2021/07/12 12:52:03;;;;;;;1.05;0.70;;;27.50;57.30;;;;;;5035958;28;20050;-78
2021/07/12 12:54:43;;;;;;;1.27;0.70;;;27.80;57.10;;;;;;5035696;28;20036;-77
2021/07/12 12:57:10;;;;;;;;;;;27.60;57.50;;;;;;5045439;28;20041;-76
2021/07/12 12:59:43;;;;;;;2.83;0.70;;;27.60;56.50;;;;;;5043678;28;19904;-76
2021/07/12 13:02:22;;;;;;;1.90;1.00;;;27.70;57.00;;;;;;5049966;28;20028;-76